Time;durP1;ratioP1;P1;durP2;ratioP2;P2;SDS_P1;SDS_P2;PMS_P1;PMS_P2;Temp;Humidity;BMP_temperature;BMP_pressure;BME280_temperature;BME280_humidity;BME280_pressure;Samples;Min_cycle;Max_cycle;Signal;HPM_P1;HPM_P2
2023/04/16 00:02:20;;;;;;;58.27;28.77;;;7.50;99.90;;;;;;4999091;28;20183;-79
2023/04/16 00:04:46;;;;;;;60.17;31.50;;;7.50;99.90;;;;;;4998691;28;20196;-79
2023/04/16 00:07:12;;;;;;;68.20;32.53;;;7.50;99.90;;;;;;4999327;28;20176;-79
2023/04/16 00:09:37;;;;;;;62.70;29.77;;;7.50;99.90;;;;;;5017226;28;20707;-79
2023/04/16 00:12:03;;;;;;;57.60;29.83;;;7.50;99.90;;;;;;4998856;28;20184;-77
2023/04/16 00:14:29;;;;;;;56.17;28.50;;;7.50;99.90;;;;;;5015070;28;20269;-77
2023/04/16 00:16:55;;;;;;;66.53;29.60;;;7.50;99.90;;;;;;4997616;28;20187;-77
2023/04/16 00:19:20;;;;;;;53.50;29.77;;;7.40;99.90;;;;;;4997215;28;20683;-77
2023/04/16 00:21:46;;;;;;;62.77;28.93;;;7.40;99.90;;;;;;5014749;28;20207;-77
2023/04/16 00:24:12;;;;;;;56.37;29.87;;;7.40;99.90;;;;;;5015188;28;20206;-77
2023/04/16 00:26:38;;;;;;;58.00;29.23;;;7.40;99.90;;;;;;5015090;28;20172;-77
2023/04/16 00:29:04;;;;;;;52.10;28.27;;;7.40;99.90;;;;;;5016439;28;20203;-79
2023/04/16 00:31:31;;;;;;;52.90;28.07;;;7.40;99.90;;;;;;4999535;28;20187;-79
2023/04/16 00:33:57;;;;;;;52.70;27.87;;;7.40;99.90;;;;;;4999137;28;20755;-80
2023/04/16 00:36:24;;;;;;;53.40;28.80;;;7.40;99.90;;;;;;4999583;28;20160;-79
2023/04/16 00:38:50;;;;;;;58.60;28.17;;;7.40;99.90;;;;;;5016330;28;20724;-76
2023/04/16 00:41:16;;;;;;;55.90;29.27;;;7.40;99.90;;;;;;5016480;28;20172;-80
2023/04/16 00:43:42;;;;;;;58.63;30.00;;;7.40;99.90;;;;;;5016404;28;20176;-81
2023/04/16 00:46:08;;;;;;;66.23;30.53;;;7.40;99.90;;;;;;4999110;28;20230;-80
2023/04/16 00:48:36;;;;;;;49.17;28.27;;;7.40;99.90;;;;;;5016878;28;20553;-80
2023/04/16 00:51:04;;;;;;;62.07;31.30;;;7.40;99.90;;;;;;4999073;28;20182;-80
2023/04/16 00:53:30;;;;;;;55.23;30.73;;;7.40;99.90;;;;;;5016512;28;20228;-78
2023/04/16 00:55:56;;;;;;;59.77;30.17;;;7.40;99.90;;;;;;5015640;28;20179;-80
2023/04/16 00:58:22;;;;;;;70.20;33.97;;;7.40;99.90;;;;;;5017381;28;20551;-80
2023/04/16 01:00:48;;;;;;;76.60;35.27;;;7.40;99.90;;;;;;5016901;28;20726;-80
2023/04/16 01:03:14;;;;;;;73.40;35.63;;;7.40;99.90;;;;;;4998815;28;20203;-80
2023/04/16 01:05:40;;;;;;;72.77;35.23;;;7.40;99.90;;;;;;5016549;28;20702;-81
2023/04/16 01:08:05;;;;;;;82.80;37.33;;;7.40;99.90;;;;;;4999245;28;20179;-80
2023/04/16 01:10:31;;;;;;;83.30;38.80;;;7.40;99.90;;;;;;4999056;28;20175;-80
2023/04/16 01:12:57;;;;;;;76.77;38.50;;;7.40;99.90;;;;;;5016213;28;20179;-78
2023/04/16 01:15:23;;;;;;;87.40;39.60;;;7.40;99.90;;;;;;5014063;28;20211;-78
2023/04/16 01:17:48;;;;;;;86.93;39.40;;;7.40;99.90;;;;;;5019480;28;20214;-80
2023/04/16 01:20:14;;;;;;;87.60;38.37;;;7.40;99.90;;;;;;5020636;28;20767;-80
2023/04/16 01:22:40;;;;;;;81.10;38.43;;;7.40;99.90;;;;;;5020920;28;20206;-80
2023/04/16 01:25:05;;;;;;;83.90;39.87;;;7.40;99.90;;;;;;5021079;28;20199;-81
2023/04/16 01:27:31;;;;;;;83.57;37.90;;;7.40;99.90;;;;;;5002374;28;20204;-79
2023/04/16 01:29:57;;;;;;;84.30;39.50;;;7.40;99.90;;;;;;5019372;28;20183;-78
2023/04/16 01:32:23;;;;;;;86.60;39.57;;;7.40;99.90;;;;;;5019305;28;20629;-77
2023/04/16 01:34:48;;;;;;;97.40;42.90;;;7.40;99.90;;;;;;5001813;28;20222;-79
2023/04/16 01:37:14;;;;;;;94.80;44.93;;;7.40;99.90;;;;;;5001290;28;20175;-77
2023/04/16 01:39:40;;;;;;;98.40;45.37;;;7.40;99.90;;;;;;5000920;28;20183;-77
2023/04/16 01:42:06;;;;;;;98.27;44.17;;;7.40;99.90;;;;;;5019308;28;20172;-78
2023/04/16 01:44:31;;;;;;;101.90;44.63;;;7.40;99.90;;;;;;5020048;28;20183;-78
2023/04/16 01:46:57;;;;;;;116.20;48.70;;;7.40;99.90;;;;;;5002318;28;20179;-78
2023/04/16 01:49:23;;;;;;;114.03;48.63;;;7.40;99.90;;;;;;5001779;28;20184;-78
2023/04/16 01:51:49;;;;;;;116.57;49.50;;;7.40;99.90;;;;;;5019738;28;20160;-78
2023/04/16 01:54:14;;;;;;;117.50;48.30;;;7.40;99.90;;;;;;5019852;28;20692;-79
2023/04/16 01:56:40;;;;;;;109.73;47.27;;;7.40;99.90;;;;;;5002471;28;20203;-78
2023/04/16 01:59:06;;;;;;;106.23;45.20;;;7.40;99.90;;;;;;5020133;28;20648;-78
2023/04/16 02:01:31;;;;;;;106.53;47.13;;;7.40;99.90;;;;;;5020121;28;20254;-78
2023/04/16 02:03:57;;;;;;;107.37;45.23;;;7.40;99.90;;;;;;5020053;28;20187;-78
2023/04/16 02:06:23;;;;;;;113.60;46.33;;;7.40;99.90;;;;;;5000920;28;20266;-78
2023/04/16 02:08:49;;;;;;;109.57;45.33;;;7.40;99.90;;;;;;5018358;28;20484;-78
2023/04/16 02:11:15;;;;;;;112.03;45.87;;;7.40;99.90;;;;;;5000290;28;20191;-78
2023/04/16 02:13:40;;;;;;;112.03;45.33;;;7.40;99.90;;;;;;5017447;28;20195;-78
2023/04/16 02:16:06;;;;;;;100.37;45.00;;;7.40;99.90;;;;;;5000377;28;20374;-77
2023/04/16 02:18:32;;;;;;;98.73;46.10;;;7.40;99.90;;;;;;5017853;28;20666;-77
2023/04/16 02:20:59;;;;;;;97.57;44.30;;;7.40;99.90;;;;;;5017710;28;20642;-77
2023/04/16 02:23:24;;;;;;;97.70;43.07;;;7.50;99.90;;;;;;5017323;28;20259;-76
2023/04/16 02:25:50;;;;;;;96.73;42.77;;;7.40;99.90;;;;;;5017012;28;20275;-77
2023/04/16 02:28:16;;;;;;;86.97;41.00;;;7.40;99.90;;;;;;5017082;28;20179;-80
2023/04/16 02:30:43;;;;;;;93.23;39.73;;;7.40;99.90;;;;;;5000199;28;20184;-78
2023/04/16 02:33:10;;;;;;;82.67;39.27;;;7.40;99.90;;;;;;4999515;28;20179;-77
2023/04/16 02:35:36;;;;;;;86.07;38.03;;;7.40;99.90;;;;;;4999658;28;20207;-78
2023/04/16 02:38:04;;;;;;;81.97;37.80;;;7.50;99.90;;;;;;5001204;28;20550;-79
2023/04/16 02:40:30;;;;;;;76.90;35.67;;;7.40;99.90;;;;;;5018485;28;20668;-79
2023/04/16 02:42:56;;;;;;;71.97;33.07;;;7.40;99.90;;;;;;5000116;28;20271;-78
2023/04/16 02:45:22;;;;;;;72.37;33.93;;;7.40;99.90;;;;;;4999235;28;20228;-77
2023/04/16 02:47:49;;;;;;;67.07;31.67;;;7.40;99.90;;;;;;4999261;28;20528;-77
2023/04/16 02:50:15;;;;;;;64.03;32.10;;;7.40;99.90;;;;;;4999331;28;20271;-77
2023/04/16 02:52:40;;;;;;;64.47;32.57;;;7.40;99.90;;;;;;5016702;28;20215;-77
2023/04/16 02:55:06;;;;;;;63.73;32.30;;;7.40;99.90;;;;;;4999146;28;20206;-77
2023/04/16 02:57:32;;;;;;;61.80;32.37;;;7.40;99.90;;;;;;4999253;28;20636;-77
2023/04/16 02:59:58;;;;;;;61.83;33.50;;;7.40;99.90;;;;;;5001353;28;20580;-80
2023/04/16 03:02:24;;;;;;;74.57;34.57;;;7.40;99.90;;;;;;5001992;28;20180;-79
2023/04/16 03:04:50;;;;;;;68.07;32.37;;;7.40;99.90;;;;;;5002097;28;20291;-80
2023/04/16 03:07:17;;;;;;;76.77;34.27;;;7.40;99.90;;;;;;5019713;28;20648;-79
2023/04/16 03:09:43;;;;;;;85.90;37.27;;;7.40;99.90;;;;;;5001563;28;20207;-79
2023/04/16 03:12:08;;;;;;;82.00;36.83;;;7.50;99.90;;;;;;5019574;28;20644;-79
2023/04/16 03:14:34;;;;;;;86.63;36.93;;;7.50;99.90;;;;;;5001108;28;20704;-80
2023/04/16 03:17:00;;;;;;;77.07;37.43;;;7.50;99.90;;;;;;5019343;28;20175;-79
2023/04/16 03:19:26;;;;;;;84.07;37.43;;;7.50;99.90;;;;;;5019472;28;20207;-79
2023/04/16 03:21:52;;;;;;;79.90;37.83;;;7.50;99.90;;;;;;5001743;28;20206;-79
2023/04/16 03:24:17;;;;;;;77.20;37.93;;;7.50;99.90;;;;;;5001432;28;20200;-78
2023/04/16 03:26:43;;;;;;;84.90;37.57;;;7.50;99.90;;;;;;4999742;28;20172;-78
2023/04/16 03:29:09;;;;;;;77.40;37.87;;;7.50;99.90;;;;;;5000085;28;20180;-78
2023/04/16 03:31:35;;;;;;;81.20;38.10;;;7.50;99.90;;;;;;5000237;28;20242;-78
2023/04/16 03:34:00;;;;;;;85.93;40.33;;;7.50;99.90;;;;;;5000265;28;20221;-79
2023/04/16 03:36:26;;;;;;;87.03;38.43;;;7.50;99.90;;;;;;5000116;28;20176;-78
2023/04/16 03:38:52;;;;;;;87.37;39.27;;;7.50;99.90;;;;;;5017054;28;20683;-78
2023/04/16 03:41:18;;;;;;;79.17;38.43;;;7.60;99.90;;;;;;4999237;28;20184;-78
2023/04/16 03:43:43;;;;;;;85.60;40.63;;;7.60;99.90;;;;;;4999118;28;20175;-78
2023/04/16 03:46:10;;;;;;;81.83;40.33;;;7.60;99.90;;;;;;4998909;28;20184;-78
2023/04/16 03:48:35;;;;;;;80.70;39.27;;;7.60;99.90;;;;;;4999394;28;20586;-78
2023/04/16 03:51:02;;;;;;;78.40;39.17;;;7.60;99.90;;;;;;5017857;28;20160;-78
2023/04/16 03:53:27;;;;;;;71.90;36.37;;;7.60;99.90;;;;;;4999657;28;20249;-78
2023/04/16 03:55:54;;;;;;;73.77;38.07;;;7.60;99.90;;;;;;4998932;28;20192;-78
2023/04/16 03:58:20;;;;;;;82.53;39.40;;;7.60;99.90;;;;;;4997991;28;20718;-77
2023/04/16 04:00:46;;;;;;;68.80;37.90;;;7.60;99.90;;;;;;5015797;28;20207;-77
2023/04/16 04:03:12;;;;;;;73.07;36.10;;;7.60;99.90;;;;;;4998784;28;20175;-77
2023/04/16 04:05:41;;;;;;;72.43;37.17;;;7.60;99.90;;;;;;4999250;28;20199;-77
2023/04/16 04:08:07;;;;;;;65.17;35.87;;;7.60;99.90;;;;;;5016693;28;20598;-77
2023/04/16 04:10:36;;;;;;;73.30;36.63;;;7.70;99.90;;;;;;5016089;28;20255;-77
2023/04/16 04:13:04;;;;;;;74.43;37.87;;;7.70;99.90;;;;;;5015838;28;20576;-76
2023/04/16 04:15:30;;;;;;;83.70;37.30;;;7.70;99.90;;;;;;5015167;28;20207;-77
2023/04/16 04:17:56;;;;;;;75.87;37.43;;;7.70;99.90;;;;;;4998214;28;20267;-78
2023/04/16 04:20:21;;;;;;;77.07;36.77;;;7.70;99.90;;;;;;4999447;28;20234;-78
2023/04/16 04:22:47;;;;;;;75.07;37.90;;;7.70;99.90;;;;;;4998894;28;20175;-78
2023/04/16 04:25:13;;;;;;;81.90;39.33;;;7.70;99.90;;;;;;4998482;28;20199;-78
2023/04/16 04:27:39;;;;;;;82.03;38.83;;;7.70;99.90;;;;;;4999017;28;20551;-78
2023/04/16 04:30:06;;;;;;;88.10;38.90;;;7.70;99.90;;;;;;4999179;28;20175;-78
2023/04/16 04:32:32;;;;;;;89.13;39.33;;;7.70;99.90;;;;;;4998756;28;20220;-78
2023/04/16 04:35:00;;;;;;;81.27;37.77;;;7.70;99.90;;;;;;4998947;28;20199;-79
2023/04/16 04:37:25;;;;;;;89.97;40.00;;;7.80;99.90;;;;;;5016250;28;20176;-78
2023/04/16 04:39:51;;;;;;;95.30;41.53;;;7.70;99.90;;;;;;5000393;28;20203;-80
2023/04/16 04:42:18;;;;;;;92.93;42.83;;;7.70;99.90;;;;;;5018947;28;20254;-81
2023/04/16 04:44:44;;;;;;;90.57;42.13;;;7.80;99.90;;;;;;5001615;28;20195;-80
2023/04/16 04:47:10;;;;;;;95.57;42.83;;;7.70;99.90;;;;;;5018546;28;20180;-81
2023/04/16 04:49:36;;;;;;;95.63;41.33;;;7.70;99.90;;;;;;5019343;28;20180;-81
2023/04/16 04:52:02;;;;;;;88.60;41.00;;;7.80;99.90;;;;;;5022564;28;20212;-80
2023/04/16 04:54:29;;;;;;;85.90;42.23;;;7.80;99.90;;;;;;5023138;28;20199;-80
2023/04/16 04:56:55;;;;;;;91.60;43.13;;;7.80;99.90;;;;;;5023390;28;20183;-80
2023/04/16 04:59:22;;;;;;;89.83;41.37;;;7.80;99.90;;;;;;5023726;28;20203;-80
2023/04/16 05:01:48;;;;;;;94.17;42.43;;;7.80;99.90;;;;;;5006682;28;20187;-80
2023/04/16 05:04:14;;;;;;;84.47;41.37;;;7.80;99.90;;;;;;5022795;28;20192;-80
2023/04/16 05:06:40;;;;;;;96.90;42.03;;;7.80;99.90;;;;;;5020485;28;20182;-82
2023/04/16 05:09:10;;;;;;;92.27;43.23;;;7.80;99.90;;;;;;5019859;28;20236;-84
2023/04/16 05:11:40;;;;;;;91.03;43.63;;;7.80;99.90;;;;;;5001854;28;20271;-83
2023/04/16 05:14:06;;;;;;;93.90;45.43;;;7.80;99.90;;;;;;5019805;28;20207;-85
2023/04/16 05:16:33;;;;;;;89.23;43.07;;;7.90;99.90;;;;;;5019858;28;20168;-84
2023/04/16 05:18:59;;;;;;;94.60;45.27;;;7.90;99.90;;;;;;5001994;28;20183;-84
2023/04/16 05:21:25;;;;;;;96.77;45.97;;;7.90;99.90;;;;;;5002091;28;20172;-84
2023/04/16 05:23:51;;;;;;;96.17;46.13;;;7.90;99.90;;;;;;5002365;28;20196;-83
2023/04/16 05:26:16;;;;;;;91.83;44.40;;;7.90;99.90;;;;;;5022884;28;20527;-81
2023/04/16 05:28:42;;;;;;;106.17;48.83;;;7.80;99.90;;;;;;5006617;28;20167;-84
2023/04/16 05:31:08;;;;;;;101.73;47.17;;;7.90;99.90;;;;;;5021002;28;20199;-85
2023/04/16 05:33:33;;;;;;;101.93;49.90;;;7.90;99.90;;;;;;5003611;28;20230;-84
2023/04/16 05:35:59;;;;;;;105.23;49.23;;;7.90;99.90;;;;;;5016786;28;20644;-80
2023/04/16 05:38:25;;;;;;;103.17;51.03;;;7.90;99.90;;;;;;4999334;28;20646;-81
2023/04/16 05:40:51;;;;;;;98.57;50.07;;;7.90;99.90;;;;;;5000127;28;20207;-84
2023/04/16 05:43:17;;;;;;;93.17;47.83;;;7.90;99.90;;;;;;4999756;28;20758;-81
2023/04/16 05:45:42;;;;;;;107.30;50.50;;;7.90;99.90;;;;;;5000193;28;20195;-81
2023/04/16 05:48:08;;;;;;;99.13;49.43;;;7.90;99.90;;;;;;5000421;28;20180;-82
2023/04/16 05:50:35;;;;;;;89.33;46.93;;;7.90;99.90;;;;;;5000460;28;20621;-81
2023/04/16 05:53:03;;;;;;;94.83;46.57;;;7.90;99.90;;;;;;4999834;28;20180;-80
2023/04/16 05:55:28;;;;;;;95.40;46.07;;;8.00;99.90;;;;;;5017463;28;20199;-79
2023/04/16 05:57:54;;;;;;;88.77;44.53;;;7.90;99.90;;;;;;5017583;28;20168;-80
2023/04/16 06:00:20;;;;;;;80.37;42.03;;;8.00;99.90;;;;;;4999238;28;20211;-80
2023/04/16 06:02:46;;;;;;;81.27;41.50;;;8.00;99.90;;;;;;5000714;28;20198;-79
2023/04/16 06:05:11;;;;;;;76.63;41.57;;;8.00;99.90;;;;;;5021162;28;20192;-79
2023/04/16 06:07:37;;;;;;;79.80;42.83;;;8.00;99.90;;;;;;5021600;28;20191;-80
2023/04/16 06:10:03;;;;;;;78.47;42.23;;;8.00;99.90;;;;;;5021246;28;20172;-79
2023/04/16 06:12:29;;;;;;;70.43;40.87;;;8.00;99.90;;;;;;5003312;28;20772;-78
2023/04/16 06:14:55;;;;;;;67.77;41.50;;;8.00;99.90;;;;;;5002891;28;20215;-79
2023/04/16 06:17:21;;;;;;;77.23;42.40;;;8.10;99.90;;;;;;5003117;28;20175;-79
2023/04/16 06:19:47;;;;;;;74.87;40.73;;;8.10;99.90;;;;;;5003630;28;20210;-79
2023/04/16 06:22:13;;;;;;;69.27;40.97;;;8.10;99.90;;;;;;5002509;28;20184;-79
2023/04/16 06:24:39;;;;;;;73.43;41.43;;;8.10;99.90;;;;;;5002637;28;20200;-79
2023/04/16 06:27:04;;;;;;;70.30;39.10;;;8.20;99.90;;;;;;5000715;28;20195;-84
2023/04/16 06:29:30;;;;;;;75.20;39.23;;;8.10;99.90;;;;;;5019074;28;20206;-86
2023/04/16 06:31:56;;;;;;;70.47;38.37;;;8.20;99.90;;;;;;5018677;28;20189;-84
2023/04/16 06:34:22;;;;;;;65.67;36.67;;;8.20;99.90;;;;;;5001101;28;20206;-85
2023/04/16 06:36:47;;;;;;;67.10;37.20;;;8.20;99.90;;;;;;5000968;28;20179;-83
2023/04/16 06:39:13;;;;;;;64.87;39.27;;;8.30;99.90;;;;;;5002922;28;20206;-83
2023/04/16 06:41:39;;;;;;;65.47;37.60;;;8.30;99.90;;;;;;5021149;28;20179;-85
2023/04/16 06:44:05;;;;;;;65.03;37.00;;;8.30;99.90;;;;;;5003334;28;20242;-84
2023/04/16 06:46:31;;;;;;;63.57;39.10;;;8.30;99.90;;;;;;5020163;28;20152;-84
2023/04/16 06:48:56;;;;;;;60.27;35.80;;;8.30;99.90;;;;;;5002989;28;20171;-83
2023/04/16 06:51:22;;;;;;;61.27;36.17;;;8.30;99.90;;;;;;5002628;28;20234;-83
2023/04/16 06:53:48;;;;;;;63.63;35.97;;;8.30;99.90;;;;;;5019502;28;20203;-83
2023/04/16 06:56:14;;;;;;;67.10;37.23;;;8.30;99.90;;;;;;5001763;28;20187;-83
2023/04/16 06:58:39;;;;;;;65.13;37.67;;;8.30;99.90;;;;;;5019237;28;20171;-83
2023/04/16 07:01:05;;;;;;;66.67;36.17;;;8.30;99.90;;;;;;5001527;28;20207;-83
2023/04/16 07:03:31;;;;;;;58.47;36.00;;;8.30;99.90;;;;;;5002973;28;20179;-84
2023/04/16 07:05:57;;;;;;;65.17;37.53;;;8.30;99.90;;;;;;5018545;28;20211;-83
2023/04/16 07:08:23;;;;;;;61.33;35.40;;;8.30;99.90;;;;;;5018076;28;20180;-83
2023/04/16 07:10:49;;;;;;;67.10;38.93;;;8.40;99.90;;;;;;5000741;28;20652;-83
2023/04/16 07:13:17;;;;;;;66.83;38.10;;;8.40;99.90;;;;;;5017829;28;20187;-83
2023/04/16 07:15:43;;;;;;;68.77;38.60;;;8.40;99.90;;;;;;5018919;28;20200;-81
2023/04/16 07:18:08;;;;;;;61.47;36.87;;;8.40;99.90;;;;;;5020927;28;20168;-83
2023/04/16 07:20:35;;;;;;;62.57;35.90;;;8.40;99.90;;;;;;5002114;28;20290;-83
2023/04/16 07:23:01;;;;;;;55.37;34.93;;;8.40;99.90;;;;;;5020869;28;20172;-82
2023/04/16 07:25:26;;;;;;;61.77;34.60;;;8.40;99.90;;;;;;5002490;28;20207;-82
2023/04/16 07:27:52;;;;;;;50.50;33.97;;;8.40;99.90;;;;;;5019440;28;20168;-81
2023/04/16 07:30:18;;;;;;;54.33;34.60;;;8.50;99.90;;;;;;5018108;28;20241;-81
2023/04/16 07:32:44;;;;;;;53.70;34.23;;;8.50;99.90;;;;;;5000819;28;20710;-81
2023/04/16 07:35:10;;;;;;;52.00;34.40;;;8.50;99.90;;;;;;5018441;28;20195;-80
2023/04/16 07:37:35;;;;;;;53.27;34.10;;;8.50;99.90;;;;;;5017430;28;20652;-80
2023/04/16 07:40:01;;;;;;;52.17;33.80;;;8.60;99.90;;;;;;5020955;28;20291;-81
2023/04/16 07:42:27;;;;;;;53.70;34.30;;;8.60;99.90;;;;;;5002199;28;20229;-81
2023/04/16 07:44:54;;;;;;;50.00;32.80;;;8.50;99.90;;;;;;5001987;28;20204;-83
2023/04/16 07:47:21;;;;;;;51.73;32.17;;;8.50;99.90;;;;;;5019898;28;20187;-83
2023/04/16 07:49:49;;;;;;;56.00;34.77;;;8.60;99.90;;;;;;5001582;28;20195;-83
2023/04/16 07:52:15;;;;;;;51.77;33.33;;;8.60;99.90;;;;;;5000542;28;20184;-82
2023/04/16 07:54:41;;;;;;;49.43;32.67;;;8.60;99.90;;;;;;5000148;28;20227;-81
2023/04/16 07:57:06;;;;;;;50.57;32.27;;;8.60;99.90;;;;;;5000410;28;20249;-81
2023/04/16 07:59:33;;;;;;;49.17;32.50;;;8.60;99.90;;;;;;5017059;28;20230;-81
2023/04/16 08:02:00;;;;;;;54.37;33.43;;;8.70;99.90;;;;;;5018065;28;20184;-81
2023/04/16 08:04:26;;;;;;;47.30;31.30;;;8.70;99.90;;;;;;5000552;28;20572;-81
2023/04/16 08:06:52;;;;;;;49.47;32.73;;;8.70;99.90;;;;;;5000589;28;20179;-81
2023/04/16 08:09:26;;;;;;;48.50;32.40;;;8.80;99.90;;;;;;5000796;28;20723;-81
2023/04/16 08:11:52;;;;;;;50.20;32.00;;;8.80;99.90;;;;;;5000410;28;20167;-81
2023/04/16 08:14:17;;;;;;;50.47;32.97;;;8.90;99.90;;;;;;5016410;28;20216;-81
2023/04/16 08:16:43;;;;;;;49.87;33.00;;;8.90;99.90;;;;;;4999893;28;20176;-81
2023/04/16 08:19:09;;;;;;;52.67;32.70;;;8.90;99.90;;;;;;4999796;28;20664;-81
2023/04/16 08:21:35;;;;;;;50.93;33.83;;;9.00;99.90;;;;;;5017678;28;20176;-81
2023/04/16 08:24:00;;;;;;;54.70;33.93;;;8.90;99.90;;;;;;4999976;28;20323;-81
2023/04/16 08:26:26;;;;;;;55.87;33.80;;;9.00;99.90;;;;;;5016381;28;20204;-81
2023/04/16 08:28:52;;;;;;;53.17;34.90;;;8.90;99.90;;;;;;5000240;28;20621;-81
2023/04/16 08:31:18;;;;;;;52.63;34.37;;;8.90;99.90;;;;;;5017424;28;20176;-80
2023/04/16 08:33:43;;;;;;;53.63;33.77;;;8.80;99.90;;;;;;5004480;28;20591;-80
2023/04/16 08:36:09;;;;;;;54.37;34.53;;;8.90;99.90;;;;;;5018607;28;20180;-80
2023/04/16 08:38:35;;;;;;;59.67;35.23;;;8.90;99.90;;;;;;5001305;28;20183;-80
2023/04/16 08:41:05;;;;;;;54.33;34.27;;;8.90;99.90;;;;;;5021814;28;20203;-80
2023/04/16 08:43:34;;;;;;;53.53;32.97;;;9.00;99.90;;;;;;5001502;28;20172;-81
2023/04/16 08:46:00;;;;;;;50.33;31.47;;;9.10;99.90;;;;;;5000383;28;20180;-81
2023/04/16 08:48:31;;;;;;;47.17;31.63;;;9.10;99.90;;;;;;5001194;28;20234;-81
2023/04/16 08:50:59;;;;;;;49.77;32.70;;;9.10;99.90;;;;;;4999824;28;20629;-82
2023/04/16 08:53:36;;;;;;;47.93;31.70;;;9.10;99.90;;;;;;5016218;28;20714;-81
2023/04/16 08:56:04;;;;;;;47.87;30.90;;;9.20;99.90;;;;;;5016574;28;20199;-81
2023/04/16 08:58:33;;;;;;;49.33;32.37;;;9.40;99.90;;;;;;5016814;28;20668;-81
2023/04/16 09:01:02;;;;;;;44.80;30.40;;;9.50;99.90;;;;;;4999075;28;20215;-81
2023/04/16 09:03:29;;;;;;;51.37;30.60;;;9.60;99.90;;;;;;5017255;28;20657;-81
2023/04/16 09:05:57;;;;;;;45.27;33.00;;;9.60;99.90;;;;;;5015803;28;20191;-81
2023/04/16 09:08:25;;;;;;;48.07;30.70;;;9.70;99.90;;;;;;4999487;28;20180;-81
2023/04/16 09:10:51;;;;;;;46.07;30.97;;;9.80;99.90;;;;;;5018331;28;20255;-81
2023/04/16 09:13:19;;;;;;;43.47;30.20;;;9.90;99.90;;;;;;4999445;28;20565;-81
2023/04/16 09:15:46;;;;;;;42.10;28.73;;;9.90;99.90;;;;;;5000261;28;20211;-81
2023/04/16 09:18:11;;;;;;;41.77;28.17;;;10.00;99.90;;;;;;5018796;28;20260;-81
2023/04/16 09:20:38;;;;;;;42.43;27.47;;;10.00;99.90;;;;;;5019880;28;20203;-81
2023/04/16 09:23:04;;;;;;;44.07;29.73;;;10.10;99.90;;;;;;4999578;28;20183;-81
2023/04/16 09:25:33;;;;;;;41.87;28.53;;;10.00;99.90;;;;;;4997728;28;20238;-81
2023/04/16 09:28:00;;;;;;;43.40;29.00;;;10.10;99.90;;;;;;4997783;28;20534;-81
2023/04/16 09:30:27;;;;;;;42.07;27.47;;;10.00;99.90;;;;;;5016179;28;20683;-83
2023/04/16 09:33:21;;;;;;;40.50;28.10;;;10.00;99.90;;;;;;4997964;28;20183;-83
2023/04/16 09:35:51;;;;;;;42.17;27.70;;;10.00;99.90;;;;;;4997993;28;20235;-80
2023/04/16 09:38:18;;;;;;;38.37;28.57;;;10.00;99.90;;;;;;5017425;28;20172;-82
2023/04/16 09:40:46;;;;;;;38.33;28.03;;;10.00;99.90;;;;;;5001993;28;20242;-82
2023/04/16 09:43:13;;;;;;;41.38;28.05;;;10.00;99.90;;;;;;5002244;28;20593;-82
2023/04/16 09:45:53;;;;;;;41.97;28.03;;;9.90;99.90;;;;;;5001935;28;20204;-82
2023/04/16 09:48:28;;;;;;;40.97;28.43;;;10.00;99.90;;;;;;5003093;28;20570;-82
2023/04/16 09:50:55;;;;;;;42.95;28.45;;;10.00;99.90;;;;;;5019325;28;20186;-82
2023/04/16 09:53:30;;;;;;;40.97;28.97;;;10.00;99.90;;;;;;5001436;28;20179;-82
2023/04/16 09:55:58;;;;;;;41.37;29.43;;;10.10;99.90;;;;;;5019633;28;20199;-82
2023/04/16 09:58:24;;;;;;;43.07;29.27;;;10.20;99.90;;;;;;5019831;28;20191;-82
2023/04/16 10:01:08;;;;;;;40.37;28.13;;;10.30;99.90;;;;;;5001890;28;20294;-82
2023/04/16 10:03:36;;;;;;;41.43;28.33;;;10.40;99.90;;;;;;5002401;28;20257;-82
2023/04/16 10:06:15;;;;;;;40.10;27.47;;;10.50;99.90;;;;;;5019740;28;20222;-83
2023/04/16 10:08:56;;;;;;;39.35;27.23;;;10.60;99.90;;;;;;5003330;28;20633;-82
2023/04/16 10:11:23;;;;;;;37.22;25.33;;;10.70;99.90;;;;;;5001611;28;20180;-82
2023/04/16 10:13:50;;;;;;;37.07;26.47;;;10.80;99.90;;;;;;5001489;28;20268;-82
2023/04/16 10:16:16;;;;;;;37.22;26.48;;;11.00;99.90;;;;;;5019077;28;20184;-82
2023/04/16 10:18:44;;;;;;;36.45;25.73;;;11.00;99.90;;;;;;5002547;28;20184;-82
2023/04/16 10:21:11;;;;;;;35.87;26.17;;;11.00;99.90;;;;;;5002427;28;20286;-82
2023/04/16 10:23:38;;;;;;;37.63;26.13;;;11.10;99.90;;;;;;5020247;28;20179;-82
2023/04/16 10:26:05;;;;;;;37.45;25.73;;;11.30;99.90;;;;;;5019936;28;20258;-82
2023/04/16 10:28:34;;;;;;;37.47;26.80;;;11.40;99.90;;;;;;5019381;28;20178;-82
2023/04/16 10:31:06;;;;;;;35.13;25.55;;;11.60;99.90;;;;;;5002155;28;20191;-82
2023/04/16 10:33:38;;;;;;;38.53;26.33;;;11.70;99.90;;;;;;5019481;28;20160;-82
2023/04/16 10:36:08;;;;;;;35.67;24.00;;;11.60;99.90;;;;;;5004467;28;20172;-82
2023/04/16 10:38:37;;;;;;;36.03;24.65;;;11.70;99.90;;;;;;5020433;28;20182;-82
2023/04/16 10:41:04;;;;;;;37.17;25.58;;;11.70;99.90;;;;;;5019844;28;20199;-82
2023/04/16 10:43:32;;;;;;;35.55;25.90;;;11.70;99.90;;;;;;5020224;28;20175;-82
2023/04/16 10:46:23;;;;;;;36.15;24.20;;;11.70;99.90;;;;;;5019711;28;20171;-81
2023/04/16 10:48:53;;;;;;;34.60;24.50;;;11.80;99.90;;;;;;5004161;28;20218;-81
2023/04/16 10:51:32;;;;;;;34.65;24.25;;;11.80;99.90;;;;;;5021314;28;20176;-81
2023/04/16 10:54:18;;;;;;;30.42;22.70;;;11.80;99.90;;;;;;5020601;28;20199;-81
2023/04/16 10:56:45;;;;;;;32.35;22.80;;;11.80;99.90;;;;;;5002955;28;20180;-81
2023/04/16 10:59:11;;;;;;;32.20;22.63;;;11.70;99.90;;;;;;5020638;28;20180;-81
2023/04/16 11:01:41;;;;;;;34.45;24.33;;;11.70;99.90;;;;;;5021928;28;20255;-81
2023/04/16 11:04:19;;;;;;;30.58;23.65;;;11.60;99.90;;;;;;5001664;28;20550;-81
2023/04/16 11:07:10;;;;;;;30.52;22.88;;;11.70;99.90;;;;;;5000376;28;20176;-81
2023/04/16 11:09:55;;;;;;;31.88;24.42;;;11.90;99.90;;;;;;5022360;28;20183;-81
2023/04/16 11:12:29;;;;;;;28.45;22.08;;;12.20;99.90;;;;;;5022362;28;20191;-81
2023/04/16 11:15:04;;;;;;;28.98;22.15;;;12.30;99.90;;;;;;5002990;28;20250;-81
2023/04/16 11:17:39;;;;;;;30.90;22.70;;;12.40;99.90;;;;;;5021263;28;20179;-82
2023/04/16 11:20:07;;;;;;;31.58;23.55;;;12.30;99.90;;;;;;5003104;28;20206;-81
2023/04/16 11:22:36;;;;;;;29.10;22.85;;;12.20;99.90;;;;;;5020908;28;20553;-82
2023/04/16 11:25:02;;;;;;;32.00;23.42;;;12.20;99.90;;;;;;5021653;28;20192;-82
2023/04/16 11:27:30;;;;;;;30.25;22.85;;;12.10;99.90;;;;;;5002414;28;20686;-82
2023/04/16 11:30:00;;;;;;;32.08;23.35;;;12.10;99.90;;;;;;5019622;28;20196;-82
2023/04/16 11:32:26;;;;;;;29.88;22.52;;;12.10;99.90;;;;;;5019053;28;20179;-82
2023/04/16 11:34:51;;;;;;;30.48;22.05;;;12.20;99.90;;;;;;5001596;28;20242;-82
2023/04/16 11:37:31;;;;;;;31.98;22.02;;;12.30;99.90;;;;;;5001673;28;20208;-82
2023/04/16 11:39:57;;;;;;;30.92;21.98;;;12.30;99.90;;;;;;5000946;28;20199;-82
2023/04/16 11:42:23;;;;;;;29.25;21.73;;;12.30;99.90;;;;;;5020440;28;20648;-82
2023/04/16 11:44:56;;;;;;;32.95;23.40;;;12.20;99.90;;;;;;5003188;28;20305;-82
2023/04/16 11:47:23;;;;;;;27.77;20.83;;;12.00;99.90;;;;;;5023405;28;20233;-82
2023/04/16 11:49:49;;;;;;;30.15;22.33;;;12.00;99.90;;;;;;5009144;28;20176;-82
2023/04/16 11:52:32;;;;;;;32.50;22.23;;;12.00;99.90;;;;;;5007257;28;20198;-83
2023/04/16 11:54:59;;;;;;;28.67;21.40;;;12.20;99.90;;;;;;5008943;28;20234;-82
2023/04/16 11:57:29;;;;;;;32.35;22.38;;;12.40;99.90;;;;;;5010073;28;20575;-82
2023/04/16 11:59:56;;;;;;;27.67;20.70;;;12.60;99.90;;;;;;5007228;28;20196;-82
2023/04/16 12:02:51;;;;;;;30.95;21.02;;;12.70;99.90;;;;;;5019923;28;20172;-82
2023/04/16 12:05:33;;;;;;;26.77;19.75;;;13.00;99.90;;;;;;5008996;28;20224;-83
2023/04/16 12:08:10;;;;;;;26.92;20.90;;;13.10;99.90;;;;;;5005958;28;20172;-81
2023/04/16 12:10:51;;;;;;;25.50;18.98;;;12.90;99.90;;;;;;5024713;28;20160;-80
2023/04/16 12:13:17;;;;;;;27.05;20.65;;;12.70;99.90;;;;;;5023905;28;20179;-81
2023/04/16 12:15:50;;;;;;;25.95;19.88;;;12.50;99.90;;;;;;5022683;28;20260;-81
2023/04/16 12:18:19;;;;;;;24.80;18.70;;;12.40;99.90;;;;;;5020183;28;20167;-81
2023/04/16 12:20:45;;;;;;;24.13;18.92;;;12.30;99.90;;;;;;5003264;28;20290;-81
2023/04/16 12:23:25;;;;;;;26.38;20.38;;;12.10;99.90;;;;;;5028123;28;20176;-81
2023/04/16 12:25:51;;;;;;;26.30;19.75;;;11.90;99.90;;;;;;5009650;28;20206;-81
2023/04/16 12:28:33;;;;;;;26.75;19.98;;;11.80;99.90;;;;;;5008950;28;20164;-83
2023/04/16 12:31:00;;;;;;;26.63;20.30;;;11.70;99.90;;;;;;5008624;28;20172;-83
2023/04/16 12:33:26;;;;;;;25.73;19.08;;;11.80;99.90;;;;;;5005840;28;20187;-83
2023/04/16 12:35:52;;;;;;;26.10;20.55;;;11.80;99.90;;;;;;5023312;28;20360;-83